Time;durP1;ratioP1;P1;durP2;ratioP2;P2;SDS_P1;SDS_P2;PMS_P1;PMS_P2;Temp;Humidity;BMP_temperature;BMP_pressure;BME280_temperature;BME280_humidity;BME280_pressure;Samples;Min_cycle;Max_cycle;Signal;HPM_P1;HPM_P2
2024/01/22 00:00:34;;;;;;;1.13;0.20;;;;;;;1.09;55.06;102309.69;5067105;28;20446;-69
2024/01/22 00:03:00;;;;;;;0.65;0.20;;;;;;;0.88;56.31;102313.63;5074997;28;20517;-69
2024/01/22 00:05:26;;;;;;;1.05;0.35;;;;;;;0.76;56.88;102306.25;5067211;28;20071;-69
2024/01/22 00:07:51;;;;;;;0.77;0.20;;;;;;;0.56;58.21;102313.56;5075077;28;20028;-69
2024/01/22 00:10:17;;;;;;;2.35;0.10;;;;;;;0.41;57.61;102322.47;5074266;28;20055;-68
2024/01/22 00:12:42;;;;;;;1.05;0.25;;;;;;;0.51;57.84;102317.94;5064953;28;20127;-68
2024/01/22 00:15:08;;;;;;;1.77;0.17;;;;;;;0.52;58.28;102315.34;5067768;28;20454;-70
2024/01/22 00:17:33;;;;;;;2.60;0.32;;;;;;;0.47;57.49;102316.34;5067745;28;20489;-70
2024/01/22 00:19:59;;;;;;;1.75;0.25;;;;;;;0.40;60.22;102318.22;5059227;28;20028;-70
2024/01/22 00:22:24;;;;;;;0.32;0.17;;;;;;;0.42;58.33;102318.19;5066039;28;20354;-70
2024/01/22 00:24:50;;;;;;;1.33;0.30;;;;;;;0.44;57.59;102316.44;5065088;28;20032;-70
2024/01/22 00:27:15;;;;;;;0.50;0.10;;;;;;;0.52;57.85;102301.66;5070937;28;20031;-72
2024/01/22 00:29:40;;;;;;;1.98;0.30;;;;;;;0.52;58.44;102301.66;5066185;28;20044;-71
2024/01/22 00:32:06;;;;;;;1.00;0.30;;;;;;;0.52;58.22;102307.66;5065548;28;20040;-70
2024/01/22 00:34:32;;;;;;;1.27;0.20;;;;;;;0.48;58.29;102310.31;5059261;28;20039;-71
2024/01/22 00:36:57;;;;;;;0.65;0.20;;;;;;;0.36;58.87;102302.94;5061377;28;20124;-70
2024/01/22 00:39:22;;;;;;;2.03;0.15;;;;;;;0.41;57.69;102293.41;5066934;28;20020;-70
2024/01/22 00:41:48;;;;;;;1.60;0.22;;;;;;;0.47;57.60;102288.16;5065396;28;20090;-70
2024/01/22 00:44:13;;;;;;;3.53;0.50;;;;;;;0.56;57.38;102288.75;5067488;28;20041;-70
2024/01/22 00:46:39;;;;;;;1.23;0.20;;;;;;;0.58;56.26;102281.84;5066074;28;20051;-71
2024/01/22 00:49:04;;;;;;;2.88;0.22;;;;;;;0.62;56.25;102290.31;5066941;28;20031;-70
2024/01/22 00:51:30;;;;;;;2.65;0.20;;;;;;;0.70;56.37;102296.13;5063681;28;20047;-70
2024/01/22 00:53:55;;;;;;;2.67;0.30;;;;;;;0.60;57.33;102289.53;5065087;28;20454;-70
2024/01/22 00:56:21;;;;;;;6.85;0.50;;;;;;;0.56;57.28;102299.00;5061166;28;20028;-71
2024/01/22 00:58:46;;;;;;;1.88;0.63;;;;;;;0.51;58.03;102290.56;5057753;28;20044;-70
2024/01/22 01:01:11;;;;;;;1.33;0.20;;;;;;;0.44;57.77;102283.09;5061298;28;20480;-70
2024/01/22 01:03:37;;;;;;;1.92;0.20;;;;;;;0.44;56.99;102285.66;5067014;28;20490;-70
2024/01/22 01:06:03;;;;;;;1.52;0.10;;;;;;;0.58;57.10;102275.88;5066657;28;20056;-70
2024/01/22 01:08:30;;;;;;;2.35;0.28;;;;;;;0.60;56.99;102274.13;5062444;28;20025;-71
2024/01/22 01:10:56;;;;;;;1.42;0.17;;;;;;;0.56;57.53;102267.38;5065598;28;20039;-70
2024/01/22 01:13:21;;;;;;;1.15;0.30;;;;;;;0.52;57.65;102268.34;5063960;28;20029;-70
2024/01/22 01:15:46;;;;;;;3.03;0.20;;;;;;;0.53;56.87;102280.28;5066144;28;20051;-71
2024/01/22 01:18:12;;;;;;;1.98;0.17;;;;;;;0.50;56.84;102276.06;5065968;28;20040;-71
2024/01/22 01:20:39;;;;;;;0.40;0.05;;;;;;;0.45;57.10;102283.06;5070276;28;20027;-70
2024/01/22 01:23:04;;;;;;;0.52;0.20;;;;;;;0.44;56.58;102283.94;5066288;28;20028;-70
2024/01/22 01:25:30;;;;;;;1.17;0.20;;;;;;;0.44;57.15;102278.78;5067980;28;20066;-70
2024/01/22 01:27:55;;;;;;;2.72;0.22;;;;;;;0.26;59.25;102279.22;5071108;28;20035;-70
2024/01/22 01:30:21;;;;;;;0.52;0.20;;;;;;;0.07;58.17;102275.34;5072716;28;20173;-69
2024/01/22 01:32:46;;;;;;;0.63;0.20;;;;;;;0.14;58.50;102275.19;5072533;28;20078;-69
2024/01/22 01:35:12;;;;;;;0.80;0.15;;;;;;;0.13;59.54;102276.06;5068860;28;20466;-70
2024/01/22 01:37:37;;;;;;;1.02;0.30;;;;;;;0.07;59.48;102267.66;5070261;28;20089;-71
2024/01/22 01:40:04;;;;;;;2.78;0.50;;;;;;;-0.01;60.27;102260.19;5072194;28;20078;-70
2024/01/22 01:42:29;;;;;;;4.05;0.30;;;;;;;-0.09;61.11;102264.63;5071192;28;20101;-71
2024/01/22 01:44:55;;;;;;;0.93;0.30;;;;;;;-0.14;60.42;102263.88;5069845;28;20545;-70
2024/01/22 01:47:20;;;;;;;1.15;0.20;;;;;;;0.01;58.90;102263.53;5073684;28;20040;-70
2024/01/22 01:49:47;;;;;;;0.73;0.20;;;;;;;0.08;59.30;102259.94;5072584;28;20033;-70
2024/01/22 01:52:13;;;;;;;0.45;0.10;;;;;;;0.24;56.70;102251.03;5071057;28;20112;-70
2024/01/22 01:54:40;;;;;;;1.27;0.20;;;;;;;0.33;57.63;102250.00;5072415;28;20035;-70
2024/01/22 01:57:06;;;;;;;1.33;0.20;;;;;;;0.31;59.37;102250.03;5072809;28;20342;-69
2024/01/22 01:59:36;;;;;;;1.85;0.13;;;;;;;0.28;59.46;102252.66;5069600;28;20032;-71
2024/01/22 02:02:02;;;;;;;0.93;0.10;;;;;;;0.23;58.14;102245.94;5067415;28;20093;-70
2024/01/22 02:04:29;;;;;;;2.55;0.22;;;;;;;0.21;60.27;102243.41;5069578;28;20544;-71
2024/01/22 02:06:55;;;;;;;0.60;0.10;;;;;;;0.11;59.97;102247.06;5071243;28;20036;-71
2024/01/22 02:09:21;;;;;;;0.80;0.10;;;;;;;0.07;59.94;102254.84;5070914;28;20028;-69
2024/01/22 02:11:46;;;;;;;1.98;0.55;;;;;;;0.03;60.92;102242.97;5066778;28;20035;-70
2024/01/22 02:14:12;;;;;;;3.30;0.28;;;;;;;0.04;60.62;102242.94;5071243;28;20508;-70
2024/01/22 02:16:37;;;;;;;1.77;0.30;;;;;;;-0.04;59.00;102244.88;5069561;28;20043;-70
2024/01/22 02:19:03;;;;;;;1.27;0.40;;;;;;;-0.22;61.55;102240.13;5071031;28;20464;-70
2024/01/22 02:21:28;;;;;;;1.13;0.40;;;;;;;-0.42;63.32;102230.28;5067899;28;20115;-70
2024/01/22 02:23:53;;;;;;;2.65;0.22;;;;;;;-0.58;60.36;102240.03;5069084;28;20035;-70
2024/01/22 02:26:19;;;;;;;1.58;0.20;;;;;;;-0.17;60.81;102235.75;5070378;28;20442;-71
2024/01/22 02:28:44;;;;;;;0.75;0.30;;;;;;;-0.04;59.37;102244.88;5071303;28;20429;-70
2024/01/22 02:31:10;;;;;;;3.33;0.20;;;;;;;-0.01;58.98;102247.38;5068736;28;20092;-70
2024/01/22 02:33:35;;;;;;;1.63;0.10;;;;;;;0.00;59.39;102247.28;5068869;28;20343;-70
2024/01/22 02:36:01;;;;;;;1.25;0.10;;;;;;;-0.04;61.13;102250.00;5058205;28;20068;-70
2024/01/22 02:38:26;;;;;;;1.45;0.20;;;;;;;-0.12;60.95;102241.63;5066551;28;20497;-70
2024/01/22 02:40:52;;;;;;;2.15;0.13;;;;;;;-0.14;60.55;102233.97;5069534;28;20039;-70
2024/01/22 02:43:18;;;;;;;0.75;0.10;;;;;;;-0.18;60.72;102236.63;5063738;28;20111;-71
2024/01/22 02:45:43;;;;;;;1.08;0.20;;;;;;;-0.21;60.29;102236.69;5067396;28;20149;-71
2024/01/22 02:48:08;;;;;;;1.00;0.17;;;;;;;-0.20;60.76;102230.69;5068449;28;20028;-70
2024/01/22 02:50:34;;;;;;;0.57;0.10;;;;;;;-0.22;61.60;102224.75;5066775;28;20036;-70
2024/01/22 02:52:59;;;;;;;0.95;0.20;;;;;;;-0.21;61.38;102223.88;5069707;28;20044;-70
2024/01/22 02:55:25;;;;;;;0.22;0.10;;;;;;;-0.21;61.77;102217.03;5069084;28;20043;-70
2024/01/22 02:57:50;;;;;;;0.80;0.15;;;;;;;-0.16;60.56;102225.47;5067636;28;20028;-71
2024/01/22 03:00:16;;;;;;;0.50;0.10;;;;;;;-0.16;60.49;102219.50;5065341;28;20043;-70
2024/01/22 03:02:41;;;;;;;1.05;0.13;;;;;;;-0.09;59.73;102215.94;5068241;28;20111;-70
2024/01/22 03:05:07;;;;;;;0.75;0.17;;;;;;;-0.05;60.26;102207.31;5067330;28;20043;-70
2024/01/22 03:07:33;;;;;;;0.55;0.20;;;;;;;-0.07;59.73;102214.19;5066700;28;20032;-70
2024/01/22 03:09:58;;;;;;;0.40;0.10;;;;;;;-0.01;58.60;102208.94;5071695;28;20518;-70
2024/01/22 03:12:24;;;;;;;1.75;0.25;;;;;;;-0.01;58.59;102214.88;5067331;28;20047;-71
2024/01/22 03:14:49;;;;;;;0.50;0.20;;;;;;;-0.01;58.34;102211.50;5066139;28;20043;-70
2024/01/22 03:17:15;;;;;;;1.13;0.25;;;;;;;-0.06;58.97;102221.84;5071149;28;20375;-70
2024/01/22 03:19:40;;;;;;;0.70;0.20;;;;;;;0.02;58.28;102208.81;5062091;28;20034;-70
2024/01/22 03:22:06;;;;;;;0.65;0.10;;;;;;;0.00;58.74;102208.03;5066573;28;20036;-70
2024/01/22 03:24:31;;;;;;;2.00;0.20;;;;;;;-0.11;59.37;102205.72;5065801;28;20040;-70
2024/01/22 03:26:57;;;;;;;0.50;0.10;;;;;;;-0.15;58.92;102205.81;5070899;28;20119;-70
2024/01/22 03:29:22;;;;;;;1.20;0.10;;;;;;;-0.20;59.22;102212.75;5069111;28;20454;-70
2024/01/22 03:31:48;;;;;;;1.40;0.10;;;;;;;-0.22;58.95;102209.38;5061887;28;20062;-71
2024/01/22 03:34:13;;;;;;;1.83;0.22;;;;;;;-0.29;59.96;102212.94;5065976;28;20509;-70
2024/01/22 03:36:38;;;;;;;1.90;0.10;;;;;;;-0.48;60.33;102217.63;5062778;28;20028;-71
2024/01/22 03:39:04;;;;;;;2.45;0.30;;;;;;;-0.61;60.51;102214.47;5067963;28;20535;-70
2024/01/22 03:41:30;;;;;;;4.13;0.20;;;;;;;-0.70;61.92;102217.22;5069495;28;20028;-70
2024/01/22 03:43:55;;;;;;;1.65;0.20;;;;;;;-0.72;61.14;102214.69;5065591;28;20054;-70
2024/01/22 03:46:21;;;;;;;1.52;0.30;;;;;;;-0.76;61.87;102207.09;5066006;28;20890;-69
2024/01/22 03:48:46;;;;;;;1.35;0.20;;;;;;;-0.65;61.89;102209.44;5064965;28;20040;-70
2024/01/22 03:51:11;;;;;;;0.70;0.20;;;;;;;-0.61;61.42;102214.47;5067829;28;20370;-71
2024/01/22 03:53:37;;;;;;;1.40;0.32;;;;;;;-0.59;62.12;102212.72;5066763;28;20493;-70
2024/01/22 03:56:04;;;;;;;1.65;0.45;;;;;;;-0.55;61.43;102206.69;5069318;28;20047;-70
2024/01/22 03:58:30;;;;;;;0.82;0.20;;;;;;;-0.46;60.75;102214.13;5069002;28;20375;-69
2024/01/22 04:00:55;;;;;;;1.60;0.10;;;;;;;-0.42;61.24;102210.66;5069125;28;20543;-69
2024/01/22 04:03:21;;;;;;;1.45;0.25;;;;;;;-0.51;62.12;102213.41;5068865;28;20453;-69
2024/01/22 04:05:46;;;;;;;1.10;0.10;;;;;;;-0.56;62.13;102214.38;5066117;28;20036;-69
2024/01/22 04:08:12;;;;;;;0.20;0.10;;;;;;;-0.58;61.88;102211.84;5068383;28;20037;-69
2024/01/22 04:10:37;;;;;;;1.20;0.20;;;;;;;-0.59;61.44;102202.50;5064461;28;20066;-69
2024/01/22 04:13:03;;;;;;;0.45;0.10;;;;;;;-0.61;62.14;102200.84;5066766;28;20031;-69
2024/01/22 04:15:28;;;;;;;2.65;0.20;;;;;;;-0.59;61.22;102209.31;5067502;28;20505;-70
2024/01/22 04:17:54;;;;;;;1.45;0.20;;;;;;;-0.64;61.98;102206.00;5065377;28;20029;-70
2024/01/22 04:20:19;;;;;;;1.15;0.00;;;;;;;-0.69;61.64;102203.53;5067643;28;20054;-70
2024/01/22 04:22:45;;;;;;;0.50;0.10;;;;;;;-0.69;62.21;102208.66;5062488;28;20035;-69
2024/01/22 04:25:10;;;;;;;0.95;0.10;;;;;;;-0.74;62.22;102205.34;5066007;28;20041;-70
2024/01/22 04:27:36;;;;;;;0.22;0.10;;;;;;;-0.77;62.12;102201.13;5070014;28;20032;-69
2024/01/22 04:30:02;;;;;;;1.15;0.20;;;;;;;-0.72;62.42;102201.88;5062677;28;20514;-69
2024/01/22 04:32:28;;;;;;;0.60;0.20;;;;;;;-0.71;61.46;102206.13;5064358;28;20035;-70
2024/01/22 04:34:54;;;;;;;1.38;0.20;;;;;;;-0.80;63.09;102205.47;5063123;28;20054;-70
2024/01/22 04:37:21;;;;;;;2.58;0.35;;;;;;;-0.83;62.82;102203.81;5063446;28;20111;-69
2024/01/22 04:39:46;;;;;;;1.52;0.17;;;;;;;-0.80;62.17;102211.44;5056476;28;20442;-69
2024/01/22 04:42:17;;;;;;;0.40;0.10;;;;;;;-0.77;62.96;102215.66;5063991;28;20103;-69
2024/01/22 04:44:43;;;;;;;1.33;0.15;;;;;;;-0.81;61.71;102206.34;5063274;28;20111;-70
2024/01/22 04:47:09;;;;;;;0.50;0.10;;;;;;;-0.82;62.66;102213.16;5063858;28;20040;-69
2024/01/22 04:49:34;;;;;;;2.08;0.20;;;;;;;-0.87;63.02;102211.56;5064607;28;20032;-69
2024/01/22 04:51:59;;;;;;;0.40;0.10;;;;;;;-0.84;62.52;102209.78;5050708;28;20040;-69
2024/01/22 04:54:25;;;;;;;0.68;0.15;;;;;;;-0.76;62.00;102218.16;5067540;28;20135;-70
2024/01/22 04:56:50;;;;;;;0.88;0.10;;;;;;;-0.78;61.72;102219.06;5047866;28;20033;-69
2024/01/22 04:59:16;;;;;;;1.25;0.22;;;;;;;-0.80;61.25;102213.13;5053171;28;20157;-70
2024/01/22 05:01:42;;;;;;;1.20;0.43;;;;;;;-0.81;62.13;102221.69;5050639;28;20040;-69
2024/01/22 05:04:07;;;;;;;0.47;0.10;;;;;;;-0.77;61.84;102215.66;5067506;28;20056;-69
2024/01/22 05:06:33;;;;;;;0.75;0.20;;;;;;;-0.75;61.48;102226.69;5064693;28;20063;-69
2024/01/22 05:08:58;;;;;;;0.63;0.20;;;;;;;-0.81;62.06;102222.53;5067332;28;20037;-69
2024/01/22 05:11:24;;;;;;;1.45;0.20;;;;;;;-0.80;61.83;102231.06;5062622;28;20052;-69
2024/01/22 05:13:53;;;;;;;1.65;0.10;;;;;;;-0.82;62.91;102238.75;5066266;28;20044;-69
2024/01/22 05:16:20;;;;;;;1.30;0.20;;;;;;;-0.94;63.33;102236.41;5066815;28;20052;-69
2024/01/22 05:18:48;;;;;;;0.77;0.20;;;;;;;-0.97;63.53;102240.78;5066285;28;20036;-69
2024/01/22 05:21:13;;;;;;;1.90;0.20;;;;;;;-1.04;63.50;102243.44;5067468;28;20044;-69
2024/01/22 05:23:42;;;;;;;0.77;0.20;;;;;;;-1.01;63.07;102240.00;5065677;28;20024;-69
2024/01/22 05:26:07;;;;;;;0.98;0.10;;;;;;;-1.01;63.74;102245.94;5065449;28;21241;-68
2024/01/22 05:28:34;;;;;;;2.72;0.43;;;;;;;-1.03;63.24;102237.47;5066250;28;20047;-70
2024/01/22 05:31:00;;;;;;;1.08;0.15;;;;;;;-1.04;63.29;102243.44;5066309;28;20048;-70
2024/01/22 05:33:27;;;;;;;2.03;0.35;;;;;;;-0.99;63.19;102232.28;5062523;28;20062;-69
2024/01/22 05:35:52;;;;;;;2.78;0.20;;;;;;;-0.99;63.48;102227.19;5060987;28;20095;-69
2024/01/22 05:38:18;;;;;;;0.50;0.10;;;;;;;-0.97;62.52;102225.44;5066670;28;20036;-69
2024/01/22 05:40:43;;;;;;;1.30;0.10;;;;;;;-0.97;62.94;102240.78;5066466;28;20035;-69
2024/01/22 05:43:08;;;;;;;0.43;0.10;;;;;;;-0.97;62.60;102243.34;5065277;28;20037;-69
2024/01/22 05:45:34;;;;;;;1.08;0.10;;;;;;;-0.97;62.02;102238.22;5066311;28;20028;-69
2024/01/22 05:47:59;;;;;;;0.57;0.10;;;;;;;-0.99;62.05;102235.69;5067350;28;20515;-68
2024/01/22 05:50:25;;;;;;;0.88;0.10;;;;;;;-1.04;62.74;102228.09;5059656;28;20475;-69
2024/01/22 05:52:50;;;;;;;1.90;0.30;;;;;;;-1.10;62.92;102233.31;5068788;28;20112;-69
2024/01/22 05:55:16;;;;;;;3.22;0.20;;;;;;;-1.08;64.12;102239.25;5065970;28;20668;-70
2024/01/22 05:57:41;;;;;;;1.20;0.30;;;;;;;-1.11;62.88;102239.31;5067226;28;20021;-69
2024/01/22 06:00:12;;;;;;;0.40;0.10;;;;;;;-1.12;63.44;102240.19;5065566;28;20378;-69
2024/01/22 06:02:42;;;;;;;1.65;0.10;;;;;;;-1.13;63.94;102235.09;5066787;28;20033;-68
2024/01/22 06:05:09;;;;;;;0.75;0.10;;;;;;;-1.15;63.75;102236.84;5066434;28;20182;-69
2024/01/22 06:07:36;;;;;;;3.20;0.20;;;;;;;-1.16;63.91;102235.97;5065013;28;20053;-69
2024/01/22 06:10:02;;;;;;;0.95;0.30;;;;;;;-1.20;64.14;102239.47;5063003;28;20024;-69
2024/01/22 06:12:27;;;;;;;3.47;0.20;;;;;;;-1.19;63.85;102236.03;5067440;28;20086;-69
2024/01/22 06:14:53;;;;;;;1.20;0.40;;;;;;;-1.23;64.24;102231.84;5067531;28;20024;-69
2024/01/22 06:17:18;;;;;;;0.73;0.22;;;;;;;-1.22;64.31;102233.53;5071168;28;20033;-69
2024/01/22 06:19:44;;;;;;;2.47;0.20;;;;;;;-1.23;64.28;102236.13;5071109;28;20454;-69
2024/01/22 06:22:12;;;;;;;3.10;0.40;;;;;;;-1.27;64.09;102230.22;5070150;28;20122;-69
2024/01/22 06:24:38;;;;;;;1.73;0.20;;;;;;;-1.34;63.93;102234.56;5064134;28;20047;-69
2024/01/22 06:27:03;;;;;;;2.33;0.30;;;;;;;-1.33;63.94;102230.31;5069083;28;20032;-69
2024/01/22 06:29:29;;;;;;;4.72;1.08;;;;;;;-1.53;64.54;102235.75;5070582;28;20477;-69
2024/01/22 06:31:54;;;;;;;2.88;0.75;;;;;;;-1.72;65.28;102236.91;5067410;28;20073;-69
2024/01/22 06:34:20;;;;;;;1.52;0.20;;;;;;;-1.56;64.80;102227.31;5070278;28;20033;-69
2024/01/22 06:36:46;;;;;;;1.00;0.25;;;;;;;-1.45;64.40;102233.09;5067236;28;20114;-69
2024/01/22 06:39:11;;;;;;;2.22;0.28;;;;;;;-1.56;63.77;102235.81;5069590;28;20052;-69
2024/01/22 06:41:37;;;;;;;2.67;0.20;;;;;;;-1.53;64.74;102237.47;5066635;28;20031;-69
2024/01/22 06:44:03;;;;;;;0.75;0.10;;;;;;;-1.40;62.45;102236.38;5066203;28;20119;-68
2024/01/22 06:46:29;;;;;;;3.78;0.40;;;;;;;-1.31;63.07;102243.06;5066620;28;20122;-69
2024/01/22 06:48:54;;;;;;;3.40;0.50;;;;;;;-1.46;63.50;102246.75;5067090;28;20037;-69
2024/01/22 06:51:20;;;;;;;8.27;0.80;;;;;;;-1.50;64.53;102243.38;5069774;28;20106;-68
2024/01/22 06:53:45;;;;;;;5.07;0.32;;;;;;;-1.41;64.81;102250.88;5062229;28;20110;-68
2024/01/22 06:56:11;;;;;;;1.20;0.43;;;;;;;-1.42;65.36;102246.63;5069398;28;20037;-68
2024/01/22 06:58:36;;;;;;;1.90;0.50;;;;;;;-1.50;66.66;102252.78;5067312;28;20141;-69
2024/01/22 07:01:05;;;;;;;2.58;0.30;;;;;;;-1.51;66.69;102251.09;5064743;28;20055;-68
2024/01/22 07:03:31;;;;;;;1.20;0.30;;;;;;;-1.55;67.14;102264.78;5057813;28;20541;-69
2024/01/22 07:05:56;;;;;;;1.40;0.22;;;;;;;-1.56;67.17;102260.53;5072281;28;20119;-69
2024/01/22 07:08:22;;;;;;;7.22;0.30;;;;;;;-1.56;66.74;102257.97;5068557;28;20047;-69
2024/01/22 07:10:48;;;;;;;1.45;0.30;;;;;;;-1.49;66.54;102264.69;5070148;28;20034;-69
2024/01/22 07:13:14;;;;;;;2.05;0.50;;;;;;;-1.41;66.32;102267.94;5070818;28;20027;-68
2024/01/22 07:15:40;;;;;;;0.80;0.20;;;;;;;-1.34;65.59;102266.97;5068568;28;20037;-69
2024/01/22 07:18:06;;;;;;;7.55;0.40;;;;;;;-1.30;65.32;102255.84;5069238;28;20046;-69
2024/01/22 07:20:32;;;;;;;2.15;0.30;;;;;;;-1.28;64.85;102259.22;5067982;28;20050;-69
2024/01/22 07:22:58;;;;;;;3.20;0.30;;;;;;;-1.26;65.06;102267.69;5069013;28;20513;-69
2024/01/22 07:25:24;;;;;;;1.83;0.20;;;;;;;-1.26;65.22;102260.03;5061429;28;20037;-68
2024/01/22 07:27:50;;;;;;;2.78;0.20;;;;;;;-1.27;65.60;102257.50;5070716;28;20041;-69
2024/01/22 07:30:16;;;;;;;1.63;0.40;;;;;;;-1.24;64.91;102247.22;5069808;28;20043;-69
2024/01/22 07:32:42;;;;;;;1.90;0.25;;;;;;;-1.21;64.79;102242.88;5070998;28;20112;-68
2024/01/22 07:35:09;;;;;;;0.45;0.20;;;;;;;-1.18;64.96;102247.09;5071107;28;20143;-68
2024/01/22 07:37:36;;;;;;;2.03;0.30;;;;;;;-1.16;64.64;102248.78;5068073;28;20039;-69
2024/01/22 07:40:06;;;;;;;1.80;0.40;;;;;;;-1.08;62.43;102241.81;5067896;28;20094;-68
2024/01/22 07:42:32;;;;;;;1.67;0.43;;;;;;;-0.95;61.07;102246.72;5064910;28;20781;-69
2024/01/22 07:44:58;;;;;;;2.10;0.80;;;;;;;-0.87;60.83;102244.84;5073653;28;20036;-69
2024/01/22 07:47:23;;;;;;;4.28;0.70;;;;;;;-0.78;61.05;102244.66;5069779;28;20034;-68
2024/01/22 07:49:49;;;;;;;2.95;0.30;;;;;;;-0.73;60.98;102250.53;5068711;28;20090;-69
2024/01/22 07:52:15;;;;;;;1.13;0.32;;;;;;;-0.65;60.83;102247.84;5069042;28;20051;-69
2024/01/22 07:54:40;;;;;;;1.98;0.40;;;;;;;-0.59;60.95;102243.44;5068702;28;20032;-69
2024/01/22 07:57:06;;;;;;;1.38;0.60;;;;;;;-0.56;62.08;102242.56;5068035;28;20076;-70
2024/01/22 07:59:31;;;;;;;2.25;0.50;;;;;;;-0.58;62.63;102237.47;5066560;28;20393;-69
2024/01/22 08:01:57;;;;;;;0.90;0.20;;;;;;;-0.55;62.30;102242.53;5068641;28;20562;-69
2024/01/22 08:04:22;;;;;;;0.77;0.20;;;;;;;-0.54;61.26;102241.66;5071178;28;20032;-69
2024/01/22 08:06:48;;;;;;;0.80;0.22;;;;;;;-0.51;61.89;102239.03;5066284;28;20032;-68
2024/01/22 08:09:14;;;;;;;1.17;0.20;;;;;;;-0.47;61.80;102248.31;5069146;28;20035;-69
2024/01/22 08:11:41;;;;;;;1.85;0.30;;;;;;;-0.44;61.87;102250.81;5068152;28;20032;-69
2024/01/22 08:14:06;;;;;;;1.60;0.20;;;;;;;-0.40;61.05;102249.88;5070219;28;20036;-69
2024/01/22 08:16:32;;;;;;;3.15;0.30;;;;;;;-0.34;61.76;102243.78;5066095;28;20043;-69
2024/01/22 08:18:57;;;;;;;3.28;0.20;;;;;;;-0.29;61.83;102249.66;5068907;28;20024;-69
2024/01/22 08:21:23;;;;;;;1.85;0.20;;;;;;;-0.27;62.18;102241.94;5070140;28;20039;-69
2024/01/22 08:23:48;;;;;;;1.17;0.20;;;;;;;-0.26;62.21;102233.38;5066830;28;20036;-70
2024/01/22 08:26:13;;;;;;;1.48;0.20;;;;;;;-0.19;61.65;102246.03;5064572;28;20040;-69
2024/01/22 08:28:39;;;;;;;0.85;0.10;;;;;;;-0.09;61.66;102236.44;5066560;28;20055;-69
2024/01/22 08:31:04;;;;;;;1.13;0.28;;;;;;;-0.05;61.65;102238.06;5063718;28;20039;-69
2024/01/22 08:33:30;;;;;;;11.00;0.50;;;;;;;0.03;59.94;102232.72;5065702;28;20056;-70
2024/01/22 08:35:56;;;;;;;0.68;0.20;;;;;;;0.06;60.60;102236.06;5062834;28;20090;-69
2024/01/22 08:38:21;;;;;;;1.23;0.25;;;;;;;0.14;60.60;102253.84;5068129;28;20024;-69
2024/01/22 08:40:46;;;;;;;8.95;0.43;;;;;;;0.14;61.26;102244.44;5067526;28;20054;-69
2024/01/22 08:43:12;;;;;;;1.10;0.17;;;;;;;0.26;60.32;102256.97;5068375;28;20040;-69
2024/01/22 08:45:38;;;;;;;2.15;0.35;;;;;;;0.37;59.35;102255.91;5067055;28;20054;-69
2024/01/22 08:48:04;;;;;;;1.45;0.30;;;;;;;0.48;58.53;102253.88;5067963;28;20033;-69
2024/01/22 08:50:30;;;;;;;2.78;0.50;;;;;;;0.57;58.77;102258.81;5067213;28;20031;-69
2024/01/22 08:52:56;;;;;;;2.03;0.40;;;;;;;0.65;57.84;102244.91;5068596;28;20110;-69
2024/01/22 08:55:23;;;;;;;1.35;0.30;;;;;;;0.73;58.91;102243.88;5068648;28;20036;-69
2024/01/22 08:57:49;;;;;;;3.22;0.52;;;;;;;0.79;59.45;102236.88;5067371;28;20032;-70
2024/01/22 09:00:15;;;;;;;1.65;0.20;;;;;;;0.84;59.31;102245.31;5067957;28;20091;-69
2024/01/22 09:02:42;;;;;;;1.30;0.30;;;;;;;1.02;58.12;102243.97;5066670;28;20101;-69
2024/01/22 09:05:08;;;;;;;2.28;0.47;;;;;;;1.10;58.34;102246.34;5069056;28;20032;-69
2024/01/22 09:07:35;;;;;;;2.22;0.50;;;;;;;1.13;57.76;102246.25;5067562;28;20090;-69
2024/01/22 09:10:03;;;;;;;1.98;0.30;;;;;;;1.30;58.13;102251.78;5068506;28;20032;-69
2024/01/22 09:12:28;;;;;;;3.58;0.40;;;;;;;1.44;56.91;102247.09;5067728;28;20111;-70
2024/01/22 09:14:54;;;;;;;1.92;0.25;;;;;;;1.57;56.49;102239.88;5069037;28;20116;-70
2024/01/22 09:17:19;;;;;;;1.92;0.30;;;;;;;1.67;56.79;102241.31;5068765;28;20031;-69
2024/01/22 09:19:44;;;;;;;1.40;0.32;;;;;;;1.78;56.69;102238.44;5067416;28;20036;-71
2024/01/22 09:22:10;;;;;;;1.02;0.20;;;;;;;1.88;55.84;102235.56;5067147;28;20037;-72
2024/01/22 09:24:35;;;;;;;1.38;0.10;;;;;;;2.02;55.90;102240.25;5066691;28;20437;-69
2024/01/22 09:27:01;;;;;;;1.23;0.28;;;;;;;2.16;55.47;102243.25;5068299;28;20025;-69
2024/01/22 09:29:27;;;;;;;1.50;0.30;;;;;;;2.16;56.37;102245.81;5068009;28;20041;-69
2024/01/22 09:31:53;;;;;;;2.15;0.40;;;;;;;2.20;57.24;102236.28;5067983;28;20111;-70
2024/01/22 09:34:18;;;;;;;2.33;0.55;;;;;;;2.38;56.21;102239.97;5067983;28;20036;-70
2024/01/22 09:36:44;;;;;;;4.13;1.02;;;;;;;2.58;57.15;102235.03;5066971;28;20041;-70
2024/01/22 09:39:09;;;;;;;3.65;0.60;;;;;;;2.70;54.86;102231.22;5067342;28;20085;-70
2024/01/22 09:41:35;;;;;;;1.90;0.63;;;;;;;2.78;56.77;102224.09;5066583;28;20504;-70
2024/01/22 09:44:01;;;;;;;2.65;0.45;;;;;;;2.78;56.00;102224.94;5068554;28;20039;-70
2024/01/22 09:46:27;;;;;;;2.13;0.52;;;;;;;2.81;55.01;102218.84;5068937;28;20039;-69
2024/01/22 09:48:56;;;;;;;1.88;0.40;;;;;;;2.83;55.40;102211.91;5072648;28;20513;-70
2024/01/22 09:51:21;;;;;;;1.35;0.20;;;;;;;2.95;55.70;102211.47;5070576;28;20041;-70
2024/01/22 09:53:47;;;;;;;1.85;0.40;;;;;;;3.04;56.60;102205.16;5071192;28;20032;-70
2024/01/22 09:56:19;;;;;;;1.85;0.40;;;;;;;3.17;55.67;102214.97;5070526;28;20127;-70
2024/01/22 09:58:46;;;;;;;2.47;0.40;;;;;;;3.27;57.42;102205.19;5069682;28;20070;-70
2024/01/22 10:01:11;;;;;;;1.73;0.60;;;;;;;3.30;56.44;102207.66;5070957;28;20033;-70
2024/01/22 10:03:39;;;;;;;3.33;0.60;;;;;;;3.44;55.22;102200.25;5070160;28;20378;-70
2024/01/22 10:06:05;;;;;;;2.30;0.80;;;;;;;3.39;55.55;102197.00;5067289;28;20060;-70
2024/01/22 10:08:30;;;;;;;1.40;0.30;;;;;;;3.37;55.20;102203.94;5071022;28;20106;-70
2024/01/22 10:10:56;;;;;;;3.67;0.80;;;;;;;3.47;55.39;102192.41;5070601;28;20482;-70
2024/01/22 10:13:21;;;;;;;3.90;0.60;;;;;;;3.51;53.79;102186.25;5071698;28;20481;-70
2024/01/22 10:15:47;;;;;;;2.88;0.47;;;;;;;3.67;55.19;102183.94;5070745;28;20054;-70
2024/01/22 10:18:14;;;;;;;0.88;0.30;;;;;;;3.83;52.04;102184.16;5071179;28;20036;-70
2024/01/22 10:20:41;;;;;;;1.17;0.20;;;;;;;3.87;52.79;102175.41;5070727;28;20089;-70
2024/01/22 10:23:08;;;;;;;1.23;0.32;;;;;;;3.91;51.20;102170.06;5071148;28;20426;-70
2024/01/22 10:25:34;;;;;;;1.80;0.32;;;;;;;4.09;52.45;102173.66;5071533;28;20040;-70
2024/01/22 10:28:19;;;;;;;9.68;0.38;;;;;;;4.21;50.54;102173.19;5067776;28;20113;-70
2024/01/22 10:30:45;;;;;;;0.82;0.28;;;;;;;4.33;50.71;102167.50;5070085;28;20039;-70
2024/01/22 10:33:18;;;;;;;1.25;0.13;;;;;;;4.38;49.99;102163.88;5071903;28;20097;-70
2024/01/22 10:35:45;;;;;;;1.15;0.30;;;;;;;4.41;50.99;102161.19;5070698;28;20135;-70
2024/01/22 10:38:13;;;;;;;1.05;0.20;;;;;;;4.44;55.03;102146.41;5071475;28;20542;-70
2024/01/22 10:40:39;;;;;;;1.27;0.20;;;;;;;4.58;52.87;102156.16;5070788;28;20115;-70
2024/01/22 10:43:18;;;;;;;3.33;0.25;;;;;;;4.66;53.87;102146.34;5068516;28;20029;-70
2024/01/22 10:45:47;;;;;;;1.23;0.43;;;;;;;4.78;50.55;102147.53;5070658;28;20048;-70
2024/01/22 10:48:17;;;;;;;1.67;0.30;;;;;;;4.84;54.01;102142.13;5071335;28;20082;-70
2024/01/22 10:50:43;;;;;;;2.65;0.43;;;;;;;4.89;52.37;102135.84;5070973;28;20116;-70
2024/01/22 10:53:11;;;;;;;1.70;0.30;;;;;;;4.98;48.24;102138.03;5071267;28;20222;-70
2024/01/22 10:55:38;;;;;;;4.25;0.52;;;;;;;4.95;53.99;102135.56;5070469;28;20036;-70
2024/01/22 10:58:12;;;;;;;0.77;0.40;;;;;;;5.04;54.21;102138.66;5070963;28;20389;-70
2024/01/22 11:00:43;;;;;;;1.33;0.47;;;;;;;5.15;50.95;102144.19;5068617;28;20500;-70
2024/01/22 11:03:10;;;;;;;4.97;0.50;;;;;;;5.09;51.15;102141.88;5071285;28;20036;-69
2024/01/22 11:05:42;;;;;;;2.00;0.70;;;;;;;4.91;52.10;102146.13;5070151;28;20024;-70
2024/01/22 11:08:11;;;;;;;1.95;0.30;;;;;;;4.80;51.09;102154.31;5071333;28;20383;-70
2024/01/22 11:10:43;;;;;;;4.80;0.65;;;;;;;4.88;55.31;102157.41;5070162;28;20371;-70
2024/01/22 11:13:09;;;;;;;1.73;0.30;;;;;;;4.90;56.68;102158.19;5071261;28;20089;-70
2024/01/22 11:15:34;;;;;;;2.40;0.17;;;;;;;4.92;54.09;102150.38;5069992;28;20473;-70
2024/01/22 11:18:00;;;;;;;0.52;0.10;;;;;;;5.02;53.07;102145.66;5071274;28;20039;-70
2024/01/22 11:20:26;;;;;;;1.85;0.10;;;;;;;5.15;54.37;102142.44;5070790;28;20033;-70
2024/01/22 11:23:05;;;;;;;6.10;0.20;;;;;;;5.20;46.99;102148.22;5070851;28;20041;-70